createdAt,value
2022-12-05T00:01:13.821Z,2.53
2022-12-05T00:03:41.756Z,2.40
2022-12-05T00:06:09.767Z,2.20
2022-12-05T00:08:37.733Z,2.27
2022-12-05T00:11:05.744Z,2.40
2022-12-05T00:13:35.011Z,2.33
2022-12-05T00:16:02.996Z,2.30
2022-12-05T00:18:30.939Z,2.50
2022-12-05T00:20:58.820Z,2.33
2022-12-05T00:23:26.834Z,2.43
2022-12-05T00:25:54.748Z,2.33
2022-12-05T00:28:22.685Z,2.40
2022-12-05T00:30:51.910Z,2.43
2022-12-05T00:33:20.026Z,2.33
2022-12-05T00:35:47.909Z,2.27
2022-12-05T00:38:15.783Z,2.40
2022-12-05T00:40:43.656Z,2.17
2022-12-05T00:43:11.806Z,2.40
2022-12-05T00:45:39.703Z,2.60
2022-12-05T00:48:09.038Z,2.40
2022-12-05T00:50:36.972Z,2.33
2022-12-05T00:53:04.858Z,2.40
2022-12-05T00:55:32.734Z,2.37
2022-12-05T00:58:00.641Z,2.40
2022-12-05T01:00:28.535Z,2.23
2022-12-05T01:02:56.701Z,2.03
2022-12-05T01:05:25.964Z,1.93
2022-12-05T01:07:54.031Z,2.53
2022-12-05T01:10:21.984Z,2.20
2022-12-05T01:12:49.887Z,2.17
2022-12-05T01:15:17.848Z,2.20
2022-12-05T01:17:45.764Z,2.00
2022-12-05T01:20:14.016Z,2.60
2022-12-05T01:22:43.264Z,2.10
2022-12-05T01:25:11.169Z,2.20
2022-12-05T01:27:39.098Z,2.40
2022-12-05T01:30:08.600Z,2.00
2022-12-05T01:32:36.513Z,2.20
2022-12-05T01:35:04.657Z,2.10
2022-12-05T01:37:32.569Z,2.37
2022-12-05T01:40:01.827Z,2.30
2022-12-05T01:42:29.744Z,1.83
2022-12-05T01:45:03.398Z,2.00
2022-12-05T01:47:32.293Z,2.10
2022-12-05T01:50:00.446Z,2.13
2022-12-05T01:52:29.502Z,2.00
2022-12-05T01:55:03.432Z,2.23
2022-12-05T01:57:31.536Z,2.30
2022-12-05T02:00:01.522Z,2.50
2022-12-05T02:02:29.596Z,2.20
2022-12-05T02:05:01.445Z,2.20
2022-12-05T02:07:30.091Z,2.20
2022-12-05T02:09:58.162Z,2.13
2022-12-05T02:12:27.520Z,2.30
2022-12-05T02:15:14.684Z,2.33
2022-12-05T02:17:45.164Z,2.23
2022-12-05T02:20:23.447Z,2.30
2022-12-05T02:23:16.921Z,2.40
2022-12-05T02:26:18.064Z,2.20
2022-12-05T02:29:08.429Z,2.23
2022-12-05T02:31:38.652Z,2.30
2022-12-05T02:34:08.070Z,2.00
2022-12-05T02:36:40.786Z,2.30
2022-12-05T02:39:13.357Z,2.17
2022-12-05T02:41:42.176Z,2.27
2022-12-05T02:44:12.635Z,2.30
2022-12-05T02:46:41.934Z,2.30
2022-12-05T02:49:10.704Z,2.10
2022-12-05T02:51:44.553Z,2.20
2022-12-05T02:54:13.777Z,2.10
2022-12-05T02:56:42.037Z,2.40
2022-12-05T02:59:09.985Z,2.20
2022-12-05T03:01:37.917Z,2.20
2022-12-05T03:04:07.698Z,2.20
2022-12-05T03:06:37.317Z,2.10
2022-12-05T03:09:07.476Z,2.27
2022-12-05T03:11:37.121Z,2.33
2022-12-05T03:14:05.088Z,2.00
2022-12-05T03:16:36.847Z,2.30
2022-12-05T03:19:10.448Z,2.10
2022-12-05T03:21:40.082Z,2.20
2022-12-05T03:24:09.444Z,2.40
2022-12-05T03:26:45.848Z,2.20
2022-12-05T03:29:23.539Z,1.80
2022-12-05T03:31:56.379Z,2.27
2022-12-05T03:34:31.108Z,2.50
2022-12-05T03:36:59.148Z,2.40
2022-12-05T03:39:28.263Z,2.10
2022-12-05T03:41:58.789Z,2.10
2022-12-05T03:44:30.389Z,2.23
2022-12-05T03:47:00.647Z,2.00
2022-12-05T03:49:34.820Z,2.20
2022-12-05T03:52:06.016Z,2.00
2022-12-05T03:54:35.152Z,2.00
2022-12-05T03:57:04.971Z,2.10
2022-12-05T03:59:35.598Z,2.00
2022-12-05T04:02:06.199Z,2.30
2022-12-05T04:04:37.169Z,1.93
2022-12-05T04:07:06.739Z,2.00
2022-12-05T04:09:36.249Z,2.30
2022-12-05T04:12:06.042Z,2.20
2022-12-05T04:14:35.790Z,2.20
2022-12-05T04:17:03.873Z,1.80
2022-12-05T04:19:50.853Z,2.00
2022-12-05T04:22:19.051Z,2.20
2022-12-05T04:25:04.407Z,2.20
2022-12-05T04:27:37.832Z,1.93
2022-12-05T04:30:07.448Z,2.10
2022-12-05T04:32:39.314Z,2.20
2022-12-05T04:35:12.653Z,2.10
2022-12-05T04:37:41.785Z,2.00
2022-12-05T04:40:12.917Z,2.10
2022-12-05T04:42:40.824Z,2.00
2022-12-05T04:45:10.100Z,1.83
2022-12-05T04:47:40.492Z,2.40
2022-12-05T04:50:11.225Z,1.90
2022-12-05T04:52:39.205Z,2.20
2022-12-05T04:55:09.041Z,2.43
2022-12-05T04:57:38.704Z,2.50
2022-12-05T05:00:08.165Z,2.27
2022-12-05T05:02:39.076Z,2.97
2022-12-05T05:05:13.925Z,3.07
2022-12-05T05:07:46.215Z,2.97
2022-12-05T05:10:16.293Z,3.80
2022-12-05T05:12:44.669Z,4.20
2022-12-05T05:15:12.570Z,5.50
2022-12-05T05:17:40.466Z,4.70
2022-12-05T05:20:27.253Z,4.90
2022-12-05T05:22:55.574Z,4.90
2022-12-05T05:25:23.547Z,5.90
2022-12-05T05:27:52.082Z,6.50
2022-12-05T05:30:20.152Z,5.87
2022-12-05T05:32:48.128Z,6.47
2022-12-05T05:35:17.630Z,6.57
2022-12-05T05:37:45.541Z,6.47
2022-12-05T05:40:13.880Z,6.17
2022-12-05T05:42:43.924Z,6.07
2022-12-05T05:45:12.249Z,6.50
2022-12-05T05:47:40.165Z,6.93
2022-12-05T05:50:09.210Z,6.17
2022-12-05T05:52:38.597Z,6.47
2022-12-05T05:55:07.556Z,6.87
2022-12-05T05:57:35.501Z,6.33
2022-12-05T06:00:04.172Z,6.73
2022-12-05T06:02:33.919Z,7.40
2022-12-05T06:05:01.892Z,7.60
2022-12-05T06:07:30.085Z,6.80
2022-12-05T06:09:59.644Z,6.73
2022-12-05T06:12:27.680Z,6.30
2022-12-05T06:14:55.591Z,6.50
2022-12-05T06:17:23.493Z,5.90
2022-12-05T06:19:51.379Z,6.83
2022-12-05T06:22:19.276Z,6.43
2022-12-05T06:24:47.246Z,6.23
2022-12-05T06:27:16.535Z,6.53
2022-12-05T06:29:44.635Z,6.57
2022-12-05T06:32:12.575Z,6.77
2022-12-05T06:34:40.668Z,6.80
2022-12-05T06:37:08.613Z,5.63
2022-12-05T06:39:36.519Z,5.60
2022-12-05T06:42:04.656Z,5.70
2022-12-05T06:44:33.931Z,6.10
2022-12-05T06:47:01.857Z,5.60
2022-12-05T06:49:36.361Z,6.23
2022-12-05T06:52:06.015Z,5.90
2022-12-05T06:54:34.066Z,6.00
2022-12-05T06:57:02.031Z,6.30
2022-12-05T06:59:29.935Z,6.23
2022-12-05T07:01:58.251Z,5.67
2022-12-05T07:04:26.190Z,6.10
2022-12-05T07:06:55.014Z,5.77
2022-12-05T07:09:44.342Z,6.30
2022-12-05T07:12:12.341Z,5.90
2022-12-05T07:14:47.498Z,5.60
2022-12-05T07:17:17.349Z,5.60
2022-12-05T07:19:45.224Z,5.67
2022-12-05T07:22:15.911Z,5.43
2022-12-05T07:24:44.409Z,4.93
2022-12-05T07:27:12.312Z,5.50
2022-12-05T07:29:40.238Z,5.73
2022-12-05T07:32:08.402Z,5.67
2022-12-05T07:34:38.805Z,5.57
2022-12-05T07:37:06.866Z,5.80
2022-12-05T07:39:34.786Z,5.10
2022-12-05T07:42:02.706Z,5.50
2022-12-05T07:44:30.782Z,5.53
2022-12-05T07:46:58.921Z,5.53
2022-12-05T07:49:26.921Z,5.57
2022-12-05T07:51:56.175Z,5.60
2022-12-05T07:54:24.312Z,6.60
2022-12-05T07:56:52.279Z,6.20
2022-12-05T07:59:20.351Z,6.13
2022-12-05T08:01:48.421Z,5.57
2022-12-05T08:04:16.404Z,6.33
2022-12-05T08:06:44.453Z,6.07
2022-12-05T08:09:13.884Z,5.90
2022-12-05T08:11:42.012Z,5.57
2022-12-05T08:14:13.926Z,5.27
2022-12-05T08:16:41.899Z,5.73
2022-12-05T08:19:12.800Z,5.67
2022-12-05T08:21:40.867Z,6.43
2022-12-05T08:24:09.288Z,5.70
2022-12-05T08:26:39.181Z,5.60
2022-12-05T08:29:07.878Z,5.40
2022-12-05T08:31:37.395Z,5.50
2022-12-05T08:34:05.725Z,5.37
2022-12-05T08:36:33.658Z,5.50
2022-12-05T08:39:02.377Z,5.27
2022-12-05T08:41:31.273Z,5.57
2022-12-05T08:44:01.420Z,4.90
2022-12-05T08:46:29.444Z,5.53
2022-12-05T08:48:57.383Z,5.63
2022-12-05T08:51:25.268Z,6.03
2022-12-05T08:53:53.493Z,5.83
2022-12-05T08:56:26.828Z,6.07
2022-12-05T08:59:01.137Z,5.83
2022-12-05T09:01:33.176Z,5.97
2022-12-05T09:04:01.590Z,5.77
2022-12-05T09:06:29.672Z,5.67
2022-12-05T09:08:58.356Z,5.53
2022-12-05T09:11:27.431Z,6.27
2022-12-05T09:13:56.105Z,5.87
2022-12-05T09:16:25.676Z,6.23
2022-12-05T09:18:55.224Z,5.73
2022-12-05T09:21:24.333Z,5.70
2022-12-05T09:23:52.435Z,5.63
2022-12-05T09:26:21.563Z,5.97
2022-12-05T09:28:49.480Z,4.90
2022-12-05T09:31:18.430Z,5.00
2022-12-05T09:33:46.443Z,5.60
2022-12-05T09:36:16.951Z,5.40
2022-12-05T09:38:45.018Z,5.37
2022-12-05T09:41:21.644Z,5.80
2022-12-05T09:43:50.976Z,5.50
2022-12-05T09:46:21.214Z,5.70
2022-12-05T09:48:49.178Z,5.87
2022-12-05T09:51:18.429Z,5.63
2022-12-05T09:53:46.348Z,5.40
2022-12-05T09:56:16.842Z,5.63
2022-12-05T09:58:45.883Z,6.80
2022-12-05T10:01:25.108Z,6.63
2022-12-05T10:04:03.023Z,5.87
2022-12-05T10:06:34.584Z,5.97
2022-12-05T10:09:27.993Z,7.00
2022-12-05T10:11:58.518Z,6.20
2022-12-05T10:14:33.540Z,6.70
2022-12-05T10:17:04.347Z,6.80
2022-12-05T10:19:34.338Z,6.33
2022-12-05T10:22:05.308Z,6.87
2022-12-05T10:24:34.852Z,6.40
2022-12-05T10:27:05.335Z,6.07
2022-12-05T10:29:34.595Z,5.83
2022-12-05T10:32:05.759Z,6.30
2022-12-05T10:34:35.289Z,7.07
2022-12-05T10:37:10.918Z,6.67
2022-12-05T10:39:39.039Z,5.87
2022-12-05T10:42:07.047Z,6.40
2022-12-05T10:44:34.914Z,7.00
2022-12-05T10:47:02.962Z,5.73
2022-12-05T10:49:31.074Z,10.30
2022-12-05T10:51:59.526Z,11.50
2022-12-05T10:54:30.772Z,9.60
2022-12-05T10:56:58.698Z,9.50
2022-12-05T10:59:27.373Z,9.30
2022-12-05T11:01:56.827Z,8.80
2022-12-05T11:04:27.214Z,8.37
2022-12-05T11:06:59.973Z,9.00
2022-12-05T11:09:29.864Z,8.57
2022-12-05T11:12:22.206Z,8.57
2022-12-05T11:15:06.423Z,8.43
2022-12-05T11:17:35.561Z,7.87
2022-12-05T11:20:05.440Z,8.37
2022-12-05T11:22:34.553Z,7.87
2022-12-05T11:25:21.534Z,7.33
2022-12-05T11:27:49.444Z,7.63
2022-12-05T11:30:19.943Z,6.93
2022-12-05T11:32:47.875Z,6.97
2022-12-05T11:35:24.183Z,7.67
2022-12-05T11:37:54.657Z,7.20
2022-12-05T11:40:30.878Z,6.53
2022-12-05T11:43:11.026Z,6.50
2022-12-05T11:45:45.681Z,6.47
2022-12-05T11:48:23.702Z,6.50
2022-12-05T11:50:53.752Z,5.87
2022-12-05T11:53:36.790Z,5.97
2022-12-05T11:56:09.904Z,5.80
2022-12-05T11:58:53.265Z,5.97
2022-12-05T12:01:24.445Z,5.83
2022-12-05T12:04:16.493Z,6.13
2022-12-05T12:06:48.857Z,5.50
2022-12-05T12:09:27.951Z,5.70
2022-12-05T12:11:59.746Z,5.33
2022-12-05T12:14:29.286Z,5.27
2022-12-05T12:17:03.149Z,4.70
2022-12-05T12:19:44.279Z,4.90
2022-12-05T12:22:21.447Z,5.07
2022-12-05T12:25:02.405Z,5.07
2022-12-05T12:27:38.837Z,5.00
2022-12-05T12:30:10.443Z,5.17
2022-12-05T12:32:41.563Z,4.53
2022-12-05T12:35:31.109Z,4.53
2022-12-05T12:38:18.471Z,4.60
2022-12-05T12:40:49.288Z,4.40
2022-12-05T12:43:52.547Z,4.67
2022-12-05T12:46:17.412Z,4.00
2022-12-05T12:48:54.586Z,4.07
2022-12-05T12:51:22.482Z,3.80
2022-12-05T12:54:05.614Z,4.13
2022-12-05T12:56:38.879Z,3.60
2022-12-05T12:59:16.042Z,3.53
2022-12-05T13:01:45.808Z,3.87
2022-12-05T13:04:15.411Z,3.77
2022-12-05T13:06:45.131Z,3.60
2022-12-05T13:09:15.968Z,3.47
2022-12-05T13:11:43.849Z,3.93
2022-12-05T13:14:14.816Z,3.50
2022-12-05T13:16:46.069Z,3.40
2022-12-05T13:19:22.773Z,3.73
2022-12-05T13:21:50.673Z,3.40
2022-12-05T13:24:18.814Z,3.70
2022-12-05T13:26:47.103Z,3.00
2022-12-05T13:29:20.912Z,3.10
2022-12-05T13:31:48.859Z,3.00
2022-12-05T13:34:46.088Z,3.10
2022-12-05T13:37:41.566Z,3.33
2022-12-05T13:40:41.583Z,2.90
2022-12-05T13:43:09.924Z,2.97
2022-12-05T13:45:39.362Z,2.77
2022-12-05T13:48:21.232Z,2.70
2022-12-05T13:50:53.158Z,3.03
2022-12-05T13:53:30.931Z,2.60
2022-12-05T13:56:01.833Z,2.60
2022-12-05T13:58:46.992Z,2.50
2022-12-05T14:01:50.393Z,2.80
2022-12-05T14:04:45.154Z,2.50
2022-12-05T14:07:13.097Z,2.50
2022-12-05T14:09:52.416Z,2.90
2022-12-05T14:12:30.826Z,2.60
2022-12-05T14:15:02.183Z,2.47
2022-12-05T14:17:31.882Z,2.50
2022-12-05T14:20:06.046Z,2.20
2022-12-05T14:23:03.765Z,2.40
2022-12-05T14:25:54.641Z,2.23
2022-12-05T14:28:36.808Z,2.03
2022-12-05T14:31:13.524Z,2.43
2022-12-05T14:33:42.828Z,2.03
2022-12-05T14:36:15.426Z,2.30
2022-12-05T14:38:43.330Z,2.20
2022-12-05T14:41:15.917Z,2.10
2022-12-05T14:43:43.898Z,2.20
2022-12-05T14:46:17.684Z,2.20
2022-12-05T14:48:48.324Z,1.90
2022-12-05T14:51:46.901Z,1.97
2022-12-05T14:54:16.193Z,2.17
2022-12-05T14:56:44.892Z,2.20
2022-12-05T14:59:21.993Z,1.93
2022-12-05T15:01:51.484Z,2.00
2022-12-05T15:04:22.321Z,1.80
2022-12-05T15:06:53.371Z,1.97
2022-12-05T15:09:38.897Z,2.03
2022-12-05T15:12:12.191Z,2.03
2022-12-05T15:14:44.669Z,1.90
2022-12-05T15:17:13.266Z,2.10
2022-12-05T15:19:44.461Z,1.73
2022-12-05T15:22:13.872Z,1.90
2022-12-05T15:24:41.944Z,1.80
2022-12-05T15:27:11.833Z,1.80
2022-12-05T15:29:39.975Z,1.90
2022-12-05T15:32:17.049Z,1.90
2022-12-05T15:34:48.480Z,1.80
2022-12-05T15:37:17.968Z,1.90
2022-12-05T15:39:54.024Z,2.00
2022-12-05T15:42:28.917Z,1.90
2022-12-05T15:45:12.945Z,1.90
2022-12-05T15:47:40.960Z,1.77
2022-12-05T15:50:14.873Z,2.30
2022-12-05T15:52:43.978Z,1.70
2022-12-05T15:55:13.836Z,1.90
2022-12-05T15:57:43.768Z,1.97
2022-12-05T16:00:15.748Z,2.03
2022-12-05T16:02:45.638Z,1.57
2022-12-05T16:05:22.283Z,1.67
2022-12-05T16:07:50.697Z,1.70
2022-12-05T16:10:23.487Z,1.90
2022-12-05T16:12:54.092Z,1.70
2022-12-05T16:15:23.871Z,1.80
2022-12-05T16:17:54.734Z,1.80
2022-12-05T16:20:30.890Z,1.73
2022-12-05T16:23:01.835Z,1.67
2022-12-05T16:25:30.765Z,1.70
2022-12-05T16:28:03.765Z,1.50
2022-12-05T16:30:31.752Z,1.80
2022-12-05T16:33:04.333Z,1.77
2022-12-05T16:35:35.992Z,1.80
2022-12-05T16:38:19.399Z,1.47
2022-12-05T16:40:55.683Z,1.43
2022-12-05T16:43:29.125Z,1.30
2022-12-05T16:45:58.505Z,1.60
2022-12-05T16:48:26.916Z,1.67
2022-12-05T16:51:16.940Z,1.70
2022-12-05T16:53:46.059Z,1.70
2022-12-05T16:56:15.904Z,1.60
2022-12-05T16:58:43.896Z,1.50
2022-12-05T17:01:16.816Z,1.50
2022-12-05T17:03:45.162Z,1.77
2022-12-05T17:06:15.084Z,1.77
2022-12-05T17:08:43.008Z,1.70
2022-12-05T17:11:11.783Z,1.50
2022-12-05T17:13:39.666Z,1.70
2022-12-05T17:16:08.147Z,1.40
2022-12-05T17:18:36.149Z,1.60
2022-12-05T17:21:04.050Z,1.40
2022-12-05T17:23:33.284Z,1.83
2022-12-05T17:26:01.500Z,1.70
2022-12-05T17:28:29.386Z,1.63
2022-12-05T17:30:57.360Z,1.40
2022-12-05T17:33:25.381Z,1.40
2022-12-05T17:35:53.254Z,1.67
2022-12-05T17:38:21.961Z,1.67
2022-12-05T17:40:51.208Z,1.60
2022-12-05T17:43:24.790Z,1.63
2022-12-05T17:45:54.585Z,1.77
2022-12-05T17:48:22.718Z,1.40
2022-12-05T17:50:50.636Z,1.50
2022-12-05T17:53:20.068Z,1.83
2022-12-05T17:55:48.554Z,1.70
2022-12-05T17:58:18.104Z,1.70
2022-12-05T18:00:46.673Z,1.60
2022-12-05T18:03:15.757Z,1.60
2022-12-05T18:05:43.753Z,1.80
2022-12-05T18:08:11.850Z,1.60
2022-12-05T18:10:41.918Z,1.60
2022-12-05T18:13:09.828Z,1.70
2022-12-05T18:15:42.748Z,1.57
2022-12-05T18:18:12.595Z,1.73
2022-12-05T18:20:40.509Z,1.33
2022-12-05T18:23:08.421Z,1.80
2022-12-05T18:25:39.047Z,1.80
2022-12-05T18:28:06.977Z,1.60
2022-12-05T18:30:34.967Z,2.17
2022-12-05T18:33:04.258Z,1.80
2022-12-05T18:35:43.930Z,1.80
2022-12-05T18:38:12.223Z,1.80
2022-12-05T18:40:40.265Z,1.90
2022-12-05T18:43:08.166Z,1.70
2022-12-05T18:45:36.097Z,1.80
2022-12-05T18:50:53.843Z,1.60
2022-12-05T18:53:21.915Z,1.70
2022-12-05T18:56:21.442Z,2.00
2022-12-05T18:58:38.261Z,1.83
2022-12-05T19:01:08.266Z,1.90
2022-12-05T19:03:38.635Z,1.83
2022-12-05T19:06:12.637Z,1.80
2022-12-05T19:08:40.558Z,1.70
2022-12-05T19:11:08.903Z,1.93
2022-12-05T19:13:37.258Z,1.87
2022-12-05T19:16:05.573Z,1.77
2022-12-05T19:18:33.570Z,1.67
2022-12-05T19:21:02.843Z,1.87
2022-12-05T19:23:32.813Z,1.93
2022-12-05T19:26:01.096Z,1.90
2022-12-05T19:28:29.250Z,1.77
2022-12-05T19:31:01.268Z,1.80
2022-12-05T19:33:33.394Z,2.17
2022-12-05T19:36:07.248Z,2.03
2022-12-05T19:38:35.518Z,2.00
2022-12-05T19:41:03.636Z,1.90
2022-12-05T19:43:31.824Z,2.30
2022-12-05T19:45:59.896Z,2.00
2022-12-05T19:48:27.903Z,1.90
2022-12-05T19:50:56.518Z,2.00
2022-12-05T19:53:26.253Z,2.20
2022-12-05T19:55:54.174Z,2.40
2022-12-05T19:58:22.069Z,2.27
2022-12-05T20:00:52.478Z,2.40
2022-12-05T20:03:20.558Z,2.33
2022-12-05T20:05:57.325Z,2.33
2022-12-05T20:08:26.683Z,2.50
2022-12-05T20:10:54.637Z,2.57
2022-12-05T20:13:45.743Z,2.20
2022-12-05T20:16:11.438Z,2.10
2022-12-05T20:18:39.909Z,2.40
2022-12-05T20:21:08.560Z,2.40
2022-12-05T20:23:37.952Z,2.40
2022-12-05T20:26:07.330Z,2.17
2022-12-05T20:28:35.443Z,2.40
2022-12-05T20:31:07.282Z,2.10
2022-12-05T20:33:35.238Z,2.40
2022-12-05T20:36:03.845Z,2.40
2022-12-05T20:38:32.354Z,2.10
2022-12-05T20:41:02.000Z,2.43
2022-12-05T20:43:30.007Z,2.30
2022-12-05T20:45:57.993Z,2.20
2022-12-05T20:48:26.874Z,2.10
2022-12-05T20:50:55.222Z,2.50
2022-12-05T20:53:23.332Z,2.20
2022-12-05T20:55:51.521Z,2.10
2022-12-05T20:58:21.644Z,2.40
2022-12-05T21:00:49.536Z,2.20
2022-12-05T21:03:17.607Z,2.10
2022-12-05T21:05:45.564Z,2.10
2022-12-05T21:08:13.577Z,2.50
2022-12-05T21:10:45.199Z,2.37
2022-12-05T21:13:13.065Z,2.07
2022-12-05T21:15:42.375Z,2.30
2022-12-05T21:18:10.330Z,2.33
2022-12-05T21:20:42.074Z,2.30
2022-12-05T21:23:10.439Z,2.30
2022-12-05T21:25:38.390Z,2.27
2022-12-05T21:28:06.323Z,2.10
2022-12-05T21:30:35.408Z,2.30
2022-12-05T21:33:05.861Z,2.43
2022-12-05T21:35:33.734Z,2.17
2022-12-05T21:38:01.770Z,2.13
2022-12-05T21:40:29.714Z,2.00
2022-12-05T21:42:57.616Z,2.20
2022-12-05T21:45:25.758Z,2.00
2022-12-05T21:47:53.778Z,2.10
2022-12-05T21:50:23.038Z,2.10
2022-12-05T21:52:50.948Z,2.20
2022-12-05T21:55:18.927Z,2.10
2022-12-05T21:57:46.824Z,1.80
2022-12-05T22:00:15.537Z,2.30
2022-12-05T22:02:43.511Z,2.10
2022-12-05T22:05:11.437Z,2.00
2022-12-05T22:07:40.724Z,2.03
2022-12-05T22:10:09.700Z,2.10
2022-12-05T22:12:37.642Z,1.90
2022-12-05T22:15:06.507Z,2.30
2022-12-05T22:17:34.409Z,2.00
2022-12-05T22:20:02.526Z,1.90
2022-12-05T22:22:30.516Z,1.70
2022-12-05T22:25:00.227Z,1.87
2022-12-05T22:27:30.305Z,1.93
2022-12-05T22:29:58.262Z,1.90
2022-12-05T22:32:26.278Z,1.90
2022-12-05T22:34:55.327Z,1.80
2022-12-05T22:37:25.019Z,1.80
2022-12-05T22:39:52.904Z,2.10
2022-12-05T22:42:22.156Z,1.87
2022-12-05T22:44:50.027Z,1.83
2022-12-05T22:47:17.940Z,1.90
2022-12-05T22:49:45.865Z,1.73
2022-12-05T22:52:14.697Z,1.73
2022-12-05T22:54:42.622Z,1.67
2022-12-05T22:57:10.507Z,1.70
2022-12-05T22:59:39.774Z,2.00
2022-12-05T23:02:07.672Z,1.80
2022-12-05T23:04:35.611Z,1.90
2022-12-05T23:07:03.517Z,1.60
2022-12-05T23:09:31.417Z,1.77
2022-12-05T23:11:59.286Z,1.53
2022-12-05T23:14:27.170Z,1.50
2022-12-05T23:16:56.391Z,1.50
2022-12-05T23:19:24.408Z,1.50
2022-12-05T23:21:52.353Z,1.77
2022-12-05T23:24:20.448Z,1.40
2022-12-05T23:26:48.399Z,1.60
2022-12-05T23:29:16.441Z,1.60
2022-12-05T23:31:44.521Z,1.80
2022-12-05T23:34:13.784Z,1.60
2022-12-05T23:36:41.683Z,1.70
2022-12-05T23:39:09.674Z,1.30
2022-12-05T23:41:37.543Z,1.60
2022-12-05T23:44:05.789Z,1.43
2022-12-05T23:46:34.484Z,1.60
2022-12-05T23:49:03.743Z,1.60
2022-12-05T23:51:33.935Z,1.50
2022-12-05T23:54:02.568Z,1.50
2022-12-05T23:56:31.805Z,1.40
2022-12-05T23:58:59.916Z,1.60
